Huvudsida
METAR-TAF:

METAR-TAF

Flygplatser :

Karachi, Uzbekistan

latitud: 38-48-12N, longitud: 065-46-24E, höjd: 375 m

Aktuellt väderrapport

Denna rapport gjordes för 32 minuter sedan, klockan 13:00 UTC
Vind 6 kt från sydväst
Temperatur 32°C
Fuktighet 21%
Tryck 1011 hPa
Sikt 10 km eller mer
Spridda moln på en höjd av 5000 ft, Cumulonimbus.

METAR: UTSK 271300Z 23006KT 9999 SCT050CB 32/07 Q1011 R16/CLRD70

Tid: 18:32 (13:32 UTC)


TAF: saknas

Aktuella väderrapporter och prognoser från 4000 flygplatser (METAR- och TAF-rapporter).

De tillgängliga stationerna syns som gula och röda prickar på kartan.

För musen över prickarna för att se namnen på stationerna.

Klicka sedan för att få väderrapporter och prognoser.

För att ändra kartan: Klicka på de gröna knapparna med ett svart kors på för att zooma in; den gröna knappen med ett streck på för att zooma ut; eller på de gröna pilarna för angränsande kartor.


METAR-TAF: